<?xml version="1.0" encoding="UTF-8" standalone="no" ?>
<gpx xmlns="http://www.topografix.com/GPX/1/1" xmlns:xsi="http://www.w3.org/2001/XMLSchema-instance" xsi:schemaLocation="http://www.topografix.com/GPX/1/1 http://www.topografix.com/GPX/1/1/gpx.xsd" version="1.1" creator="VisuGPX - https://www.visugpx.com">
  <metadata>
    <name>VOK ste-foy-de-peyrolieres-circuit-du-lac-de-parayre_9.3 km</name>
    <desc><![CDATA[Total: 9.3km]]></desc>
  </metadata>
  <trk>
    <name><![CDATA[Freestyle]]></name>
    <trkseg>
      <trkpt lat="43.46485" lon="1.14991">
        <ele>225.32</ele>
        <time>2019-10-30T13:41:13Z</time>
      </trkpt>
      <trkpt lat="43.4646" lon="1.14885">
        <ele>226.52</ele>
        <time>2019-10-30T13:42:17Z</time>
      </trkpt>
      <trkpt lat="43.46455" lon="1.14866">
        <ele>226.34</ele>
        <time>2019-10-30T13:42:29Z</time>
      </trkpt>
      <trkpt lat="43.46429" lon="1.14735">
        <ele>225.13</ele>
        <time>2019-10-30T13:43:48Z</time>
      </trkpt>
      <trkpt lat="43.46401" lon="1.14603">
        <ele>224.67</ele>
        <time>2019-10-30T13:45:09Z</time>
      </trkpt>
      <trkpt lat="43.4639" lon="1.1455">
        <ele>225.20699447411</ele>
        <time>2019-10-30T13:45:40Z</time>
      </trkpt>
      <trkpt lat="43.46386" lon="1.14536">
        <ele>225.40277686463</ele>
        <time>2019-10-30T13:45:49Z</time>
      </trkpt>
      <trkpt lat="43.46379" lon="1.14514">
        <ele>225.72777228462</ele>
        <time>2019-10-30T13:46:03Z</time>
      </trkpt>
      <trkpt lat="43.46376" lon="1.14503">
        <ele>225.89062586467</ele>
        <time>2019-10-30T13:46:10Z</time>
      </trkpt>
      <trkpt lat="43.46372" lon="1.14486">
        <ele>226.10144983164</ele>
        <time>2019-10-30T13:46:21Z</time>
      </trkpt>
      <trkpt lat="43.46367" lon="1.14464">
        <ele>226.32</ele>
        <time>2019-10-30T13:46:34Z</time>
      </trkpt>
      <trkpt lat="43.46365" lon="1.14454">
        <ele>226.39539582948</ele>
        <time>2019-10-30T13:46:40Z</time>
      </trkpt>
      <trkpt lat="43.46361" lon="1.14442">
        <ele>226.46816159733</ele>
        <time>2019-10-30T13:46:47Z</time>
      </trkpt>
      <trkpt lat="43.46357" lon="1.14433">
        <ele>226.52696634311</ele>
        <time>2019-10-30T13:46:53Z</time>
      </trkpt>
      <trkpt lat="43.46355" lon="1.14429">
        <ele>226.55781742427</ele>
        <time>2019-10-30T13:46:57Z</time>
      </trkpt>
      <trkpt lat="43.4635" lon="1.1442">
        <ele>226.62823974013</ele>
        <time>2019-10-30T13:47:03Z</time>
      </trkpt>
      <trkpt lat="43.46346" lon="1.14415">
        <ele>226.68325501393</ele>
        <time>2019-10-30T13:47:07Z</time>
      </trkpt>
      <trkpt lat="43.4634" lon="1.14403">
        <ele>226.81967081288</ele>
        <time>2019-10-30T13:47:16Z</time>
      </trkpt>
      <trkpt lat="43.4633" lon="1.14382">
        <ele>227.19932104802</ele>
        <time>2019-10-30T13:47:30Z</time>
      </trkpt>
      <trkpt lat="43.46325" lon="1.14372">
        <ele>227.48</ele>
        <time>2019-10-30T13:47:38Z</time>
      </trkpt>
      <trkpt lat="43.46317" lon="1.14353">
        <ele>228.12487205821</ele>
        <time>2019-10-30T13:47:50Z</time>
      </trkpt>
      <trkpt lat="43.46315" lon="1.14346">
        <ele>228.37690445253</ele>
        <time>2019-10-30T13:47:55Z</time>
      </trkpt>
      <trkpt lat="43.46314" lon="1.14341">
        <ele>228.56701377583</ele>
        <time>2019-10-30T13:47:58Z</time>
      </trkpt>
      <trkpt lat="43.46313" lon="1.14337">
        <ele>228.75290548702</ele>
        <time>2019-10-30T13:48:00Z</time>
      </trkpt>
      <trkpt lat="43.46312" lon="1.14327">
        <ele>229.13591750986</ele>
        <time>2019-10-30T13:48:06Z</time>
      </trkpt>
      <trkpt lat="43.46311" lon="1.1432">
        <ele>229.40648273173</ele>
        <time>2019-10-30T13:48:10Z</time>
      </trkpt>
      <trkpt lat="43.46307" lon="1.14306">
        <ele>229.98321611794</ele>
        <time>2019-10-30T13:48:19Z</time>
      </trkpt>
      <trkpt lat="43.46307" lon="1.14303">
        <ele>230.11920649074</ele>
        <time>2019-10-30T13:48:21Z</time>
      </trkpt>
      <trkpt lat="43.46306" lon="1.14293">
        <ele>230.50436078693</ele>
        <time>2019-10-30T13:48:27Z</time>
      </trkpt>
      <trkpt lat="43.46306" lon="1.14283">
        <ele>230.84194270821</ele>
        <time>2019-10-30T13:48:32Z</time>
      </trkpt>
      <trkpt lat="43.46305" lon="1.14279">
        <ele>231.00667432584</ele>
        <time>2019-10-30T13:48:35Z</time>
      </trkpt>
      <trkpt lat="43.46305" lon="1.14275">
        <ele>231.11581196109</ele>
        <time>2019-10-30T13:48:37Z</time>
      </trkpt>
      <trkpt lat="43.46303" lon="1.14269">
        <ele>231.32601700647</ele>
        <time>2019-10-30T13:48:41Z</time>
      </trkpt>
      <trkpt lat="43.46302" lon="1.14263">
        <ele>231.51</ele>
        <time>2019-10-30T13:48:45Z</time>
      </trkpt>
      <trkpt lat="43.46301" lon="1.14254">
        <ele>231.71405156885</ele>
        <time>2019-10-30T13:48:50Z</time>
      </trkpt>
      <trkpt lat="43.46301" lon="1.14234">
        <ele>232.09262520931</ele>
        <time>2019-10-30T13:49:01Z</time>
      </trkpt>
      <trkpt lat="43.46299" lon="1.14206">
        <ele>232.39238051401</ele>
        <time>2019-10-30T13:49:18Z</time>
      </trkpt>
      <trkpt lat="43.46299" lon="1.14194">
        <ele>232.45315853702</ele>
        <time>2019-10-30T13:49:25Z</time>
      </trkpt>
      <trkpt lat="43.463" lon="1.14184">
        <ele>232.47936439082</ele>
        <time>2019-10-30T13:49:31Z</time>
      </trkpt>
      <trkpt lat="43.46302" lon="1.14165">
        <ele>232.48561641683</ele>
        <time>2019-10-30T13:49:42Z</time>
      </trkpt>
      <trkpt lat="43.46303" lon="1.14153">
        <ele>232.46952457627</ele>
        <time>2019-10-30T13:49:49Z</time>
      </trkpt>
      <trkpt lat="43.46303" lon="1.14148">
        <ele>232.46</ele>
        <time>2019-10-30T13:49:52Z</time>
      </trkpt>
      <trkpt lat="43.46306" lon="1.14137">
        <ele>232.43584631633</ele>
        <time>2019-10-30T13:49:59Z</time>
      </trkpt>
      <trkpt lat="43.46309" lon="1.14123">
        <ele>232.40562313864</ele>
        <time>2019-10-30T13:50:07Z</time>
      </trkpt>
      <trkpt lat="43.4631" lon="1.14117">
        <ele>232.3941691821</ele>
        <time>2019-10-30T13:50:11Z</time>
      </trkpt>
      <trkpt lat="43.46315" lon="1.141">
        <ele>232.37945468961</ele>
        <time>2019-10-30T13:50:21Z</time>
      </trkpt>
      <trkpt lat="43.4632" lon="1.14079">
        <ele>232.41595176272</ele>
        <time>2019-10-30T13:50:34Z</time>
      </trkpt>
      <trkpt lat="43.46324" lon="1.14066">
        <ele>232.48456647464</ele>
        <time>2019-10-30T13:50:43Z</time>
      </trkpt>
      <trkpt lat="43.46327" lon="1.14059">
        <ele>232.54227199227</ele>
        <time>2019-10-30T13:50:47Z</time>
      </trkpt>
      <trkpt lat="43.46328" lon="1.14055">
        <ele>232.58223369994</ele>
        <time>2019-10-30T13:50:50Z</time>
      </trkpt>
      <trkpt lat="43.46328" lon="1.14054">
        <ele>232.59283281331</ele>
        <time>2019-10-30T13:50:50Z</time>
      </trkpt>
      <trkpt lat="43.46327" lon="1.14051">
        <ele>232.62930765167</ele>
        <time>2019-10-30T13:50:53Z</time>
      </trkpt>
      <trkpt lat="43.46326" lon="1.14049">
        <ele>232.65519085795</ele>
        <time>2019-10-30T13:50:54Z</time>
      </trkpt>
      <trkpt lat="43.46326" lon="1.14047">
        <ele>232.66910453059</ele>
        <time>2019-10-30T13:50:55Z</time>
      </trkpt>
      <trkpt lat="43.46327" lon="1.14045">
        <ele>232.7</ele>
        <time>2019-10-30T13:50:56Z</time>
      </trkpt>
      <trkpt lat="43.4633" lon="1.14038">
        <ele>232.81271866742</ele>
        <time>2019-10-30T13:51:01Z</time>
      </trkpt>
      <trkpt lat="43.46331" lon="1.14035">
        <ele>232.87054487444</ele>
        <time>2019-10-30T13:51:03Z</time>
      </trkpt>
      <trkpt lat="43.46335" lon="1.14021">
        <ele>233.14162484842</ele>
        <time>2019-10-30T13:51:12Z</time>
      </trkpt>
      <trkpt lat="43.46338" lon="1.14011">
        <ele>233.36240033838</ele>
        <time>2019-10-30T13:51:18Z</time>
      </trkpt>
      <trkpt lat="43.46343" lon="1.13989">
        <ele>233.96913913199</ele>
        <time>2019-10-30T13:51:31Z</time>
      </trkpt>
      <trkpt lat="43.46349" lon="1.13969">
        <ele>234.63459194765</ele>
        <time>2019-10-30T13:51:44Z</time>
      </trkpt>
      <trkpt lat="43.46355" lon="1.13943">
        <ele>235.66</ele>
        <time>2019-10-30T13:52:00Z</time>
      </trkpt>
      <trkpt lat="43.46365" lon="1.13908">
        <ele>237.23013647397</ele>
        <time>2019-10-30T13:52:22Z</time>
      </trkpt>
      <trkpt lat="43.46373" lon="1.13876">
        <ele>238.59760648945</ele>
        <time>2019-10-30T13:52:41Z</time>
      </trkpt>
      <trkpt lat="43.46379" lon="1.1385">
        <ele>239.5</ele>
        <time>2019-10-30T13:52:57Z</time>
      </trkpt>
      <trkpt lat="43.46384" lon="1.13823">
        <ele>240.14026919672</ele>
        <time>2019-10-30T13:53:14Z</time>
      </trkpt>
      <trkpt lat="43.46387" lon="1.13814">
        <ele>240.29325884637</ele>
        <time>2019-10-30T13:53:19Z</time>
      </trkpt>
      <trkpt lat="43.46388" lon="1.1381">
        <ele>240.360876985</ele>
        <time>2019-10-30T13:53:22Z</time>
      </trkpt>
      <trkpt lat="43.46392" lon="1.13804">
        <ele>240.45999390777</ele>
        <time>2019-10-30T13:53:27Z</time>
      </trkpt>
      <trkpt lat="43.46394" lon="1.13801">
        <ele>240.51224480252</ele>
        <time>2019-10-30T13:53:29Z</time>
      </trkpt>
      <trkpt lat="43.46396" lon="1.13799">
        <ele>240.54333489409</ele>
        <time>2019-10-30T13:53:31Z</time>
      </trkpt>
      <trkpt lat="43.46398" lon="1.13798">
        <ele>240.57529701178</ele>
        <time>2019-10-30T13:53:33Z</time>
      </trkpt>
      <trkpt lat="43.46402" lon="1.13797">
        <ele>240.61976841334</ele>
        <time>2019-10-30T13:53:35Z</time>
      </trkpt>
      <trkpt lat="43.46405" lon="1.13797">
        <ele>240.66413635508</ele>
        <time>2019-10-30T13:53:38Z</time>
      </trkpt>
      <trkpt lat="43.4641" lon="1.13798">
        <ele>240.72251481311</ele>
        <time>2019-10-30T13:53:42Z</time>
      </trkpt>
      <trkpt lat="43.46418" lon="1.138">
        <ele>240.80324263405</ele>
        <time>2019-10-30T13:53:49Z</time>
      </trkpt>
      <trkpt lat="43.46431" lon="1.13804">
        <ele>240.93427656617</ele>
        <time>2019-10-30T13:53:59Z</time>
      </trkpt>
      <trkpt lat="43.46447" lon="1.13807">
        <ele>241.13</ele>
        <time>2019-10-30T13:54:13Z</time>
      </trkpt>
      <trkpt lat="43.46458" lon="1.13808">
        <ele>241.28745060127</ele>
        <time>2019-10-30T13:54:21Z</time>
      </trkpt>
      <trkpt lat="43.46462" lon="1.13808">
        <ele>241.3557626514</ele>
        <time>2019-10-30T13:54:24Z</time>
      </trkpt>
      <trkpt lat="43.46464" lon="1.13808">
        <ele>241.40267211061</ele>
        <time>2019-10-30T13:54:26Z</time>
      </trkpt>
      <trkpt lat="43.46465" lon="1.13808">
        <ele>241.4266419443</ele>
        <time>2019-10-30T13:54:27Z</time>
      </trkpt>
      <trkpt lat="43.46468" lon="1.13807">
        <ele>241.47373354448</ele>
        <time>2019-10-30T13:54:29Z</time>
      </trkpt>
      <trkpt lat="43.4647" lon="1.13805">
        <ele>241.5217087864</ele>
        <time>2019-10-30T13:54:31Z</time>
      </trkpt>
      <trkpt lat="43.46471" lon="1.13804">
        <ele>241.54773488059</ele>
        <time>2019-10-30T13:54:32Z</time>
      </trkpt>
      <trkpt lat="43.46472" lon="1.13802">
        <ele>241.60037225284</ele>
        <time>2019-10-30T13:54:34Z</time>
      </trkpt>
      <trkpt lat="43.46475" lon="1.13797">
        <ele>241.71089779058</ele>
        <time>2019-10-30T13:54:37Z</time>
      </trkpt>
      <trkpt lat="43.46476" lon="1.13792">
        <ele>241.79866493157</ele>
        <time>2019-10-30T13:54:40Z</time>
      </trkpt>
      <trkpt lat="43.46476" lon="1.13789">
        <ele>241.8587388708</ele>
        <time>2019-10-30T13:54:42Z</time>
      </trkpt>
      <trkpt lat="43.46476" lon="1.13783">
        <ele>241.98510900192</ele>
        <time>2019-10-30T13:54:45Z</time>
      </trkpt>
      <trkpt lat="43.46475" lon="1.13779">
        <ele>242.08573203616</ele>
        <time>2019-10-30T13:54:48Z</time>
      </trkpt>
      <trkpt lat="43.46474" lon="1.13774">
        <ele>242.22315488268</ele>
        <time>2019-10-30T13:54:51Z</time>
      </trkpt>
      <trkpt lat="43.4647" lon="1.13759">
        <ele>242.65</ele>
        <time>2019-10-30T13:55:00Z</time>
      </trkpt>
      <trkpt lat="43.46462" lon="1.13724">
        <ele>243.93606242582</ele>
        <time>2019-10-30T13:55:22Z</time>
      </trkpt>
      <trkpt lat="43.46457" lon="1.13701">
        <ele>244.90934209464</ele>
        <time>2019-10-30T13:55:36Z</time>
      </trkpt>
      <trkpt lat="43.46451" lon="1.13674">
        <ele>246.08370583933</ele>
        <time>2019-10-30T13:55:52Z</time>
      </trkpt>
      <trkpt lat="43.46448" lon="1.1366">
        <ele>246.68970886795</ele>
        <time>2019-10-30T13:56:01Z</time>
      </trkpt>
      <trkpt lat="43.46447" lon="1.13647">
        <ele>247.18165802409</ele>
        <time>2019-10-30T13:56:08Z</time>
      </trkpt>
      <trkpt lat="43.46446" lon="1.13628">
        <ele>247.88</ele>
        <time>2019-10-30T13:56:19Z</time>
      </trkpt>
      <trkpt lat="43.46444" lon="1.13617">
        <ele>248.25736513483</ele>
        <time>2019-10-30T13:56:26Z</time>
      </trkpt>
      <trkpt lat="43.46441" lon="1.13588">
        <ele>249.15081150201</ele>
        <time>2019-10-30T13:56:43Z</time>
      </trkpt>
      <trkpt lat="43.4644" lon="1.13579">
        <ele>249.45175158769</ele>
        <time>2019-10-30T13:56:49Z</time>
      </trkpt>
      <trkpt lat="43.4644" lon="1.13572">
        <ele>249.67619156304</ele>
        <time>2019-10-30T13:56:53Z</time>
      </trkpt>
      <trkpt lat="43.4644" lon="1.13566">
        <ele>249.86733828535</ele>
        <time>2019-10-30T13:56:56Z</time>
      </trkpt>
      <trkpt lat="43.46441" lon="1.13559">
        <ele>250.12643959391</ele>
        <time>2019-10-30T13:57:00Z</time>
      </trkpt>
      <trkpt lat="43.46443" lon="1.13552">
        <ele>250.41776436309</ele>
        <time>2019-10-30T13:57:05Z</time>
      </trkpt>
      <trkpt lat="43.46446" lon="1.13538">
        <ele>251.04055639419</ele>
        <time>2019-10-30T13:57:13Z</time>
      </trkpt>
      <trkpt lat="43.46452" lon="1.13522">
        <ele>251.98</ele>
        <time>2019-10-30T13:57:24Z</time>
      </trkpt>
      <trkpt lat="43.4646" lon="1.13499">
        <ele>253.66441104927</ele>
        <time>2019-10-30T13:57:39Z</time>
      </trkpt>
      <trkpt lat="43.46466" lon="1.13481">
        <ele>255.09714088231</ele>
        <time>2019-10-30T13:57:50Z</time>
      </trkpt>
      <trkpt lat="43.4647" lon="1.13472">
        <ele>255.94066936126</ele>
        <time>2019-10-30T13:57:56Z</time>
      </trkpt>
      <trkpt lat="43.46479" lon="1.13444">
        <ele>258.21230200649</ele>
        <time>2019-10-30T13:58:14Z</time>
      </trkpt>
      <trkpt lat="43.46484" lon="1.13429">
        <ele>259.30520710177</ele>
        <time>2019-10-30T13:58:23Z</time>
      </trkpt>
      <trkpt lat="43.46489" lon="1.13415">
        <ele>260.24</ele>
        <time>2019-10-30T13:58:33Z</time>
      </trkpt>
      <trkpt lat="43.46496" lon="1.1339">
        <ele>261.34132054515</ele>
        <time>2019-10-30T13:58:48Z</time>
      </trkpt>
      <trkpt lat="43.465" lon="1.13379">
        <ele>261.68074283182</ele>
        <time>2019-10-30T13:58:55Z</time>
      </trkpt>
      <trkpt lat="43.46503" lon="1.13369">
        <ele>261.96350043044</ele>
        <time>2019-10-30T13:59:02Z</time>
      </trkpt>
      <trkpt lat="43.46509" lon="1.13354">
        <ele>262.27706484694</ele>
        <time>2019-10-30T13:59:12Z</time>
      </trkpt>
      <trkpt lat="43.46512" lon="1.13347">
        <ele>262.4001653895</ele>
        <time>2019-10-30T13:59:16Z</time>
      </trkpt>
      <trkpt lat="43.46513" lon="1.1334">
        <ele>262.50709510637</ele>
        <time>2019-10-30T13:59:21Z</time>
      </trkpt>
      <trkpt lat="43.46517" lon="1.13323">
        <ele>262.72648305208</ele>
        <time>2019-10-30T13:59:31Z</time>
      </trkpt>
      <trkpt lat="43.46519" lon="1.13318">
        <ele>262.81</ele>
        <time>2019-10-30T13:59:34Z</time>
      </trkpt>
      <trkpt lat="43.46525" lon="1.13303">
        <ele>263.04424024371</ele>
        <time>2019-10-30T13:59:44Z</time>
      </trkpt>
      <trkpt lat="43.46527" lon="1.13299">
        <ele>263.11706196203</ele>
        <time>2019-10-30T13:59:47Z</time>
      </trkpt>
      <trkpt lat="43.46529" lon="1.13291">
        <ele>263.23966208801</ele>
        <time>2019-10-30T13:59:52Z</time>
      </trkpt>
      <trkpt lat="43.46533" lon="1.13277">
        <ele>263.46934572181</ele>
        <time>2019-10-30T14:00:01Z</time>
      </trkpt>
      <trkpt lat="43.46538" lon="1.1326">
        <ele>263.76250897442</ele>
        <time>2019-10-30T14:00:11Z</time>
      </trkpt>
      <trkpt lat="43.46541" lon="1.13248">
        <ele>263.96903503701</ele>
        <time>2019-10-30T14:00:19Z</time>
      </trkpt>
      <trkpt lat="43.46546" lon="1.13225">
        <ele>264.33405763114</ele>
        <time>2019-10-30T14:00:33Z</time>
      </trkpt>
      <trkpt lat="43.46548" lon="1.13216">
        <ele>264.47</ele>
        <time>2019-10-30T14:00:39Z</time>
      </trkpt>
      <trkpt lat="43.46551" lon="1.13207">
        <ele>264.6001799902</ele>
        <time>2019-10-30T14:00:44Z</time>
      </trkpt>
      <trkpt lat="43.4656" lon="1.13184">
        <ele>264.90995688481</ele>
        <time>2019-10-30T14:00:59Z</time>
      </trkpt>
      <trkpt lat="43.46562" lon="1.13176">
        <ele>264.99080561191</ele>
        <time>2019-10-30T14:01:04Z</time>
      </trkpt>
      <trkpt lat="43.46567" lon="1.1316">
        <ele>265.14064830044</ele>
        <time>2019-10-30T14:01:15Z</time>
      </trkpt>
      <trkpt lat="43.46572" lon="1.13147">
        <ele>265.22587319074</ele>
        <time>2019-10-30T14:01:23Z</time>
      </trkpt>
      <trkpt lat="43.46581" lon="1.13125">
        <ele>265.28443477559</ele>
        <time>2019-10-30T14:01:38Z</time>
      </trkpt>
      <trkpt lat="43.46581" lon="1.13122">
        <ele>265.28354686991</ele>
        <time>2019-10-30T14:01:39Z</time>
      </trkpt>
      <trkpt lat="43.46581" lon="1.13118">
        <ele>265.27911543035</ele>
        <time>2019-10-30T14:01:42Z</time>
      </trkpt>
      <trkpt lat="43.46581" lon="1.13116">
        <ele>265.27680995759</ele>
        <time>2019-10-30T14:01:43Z</time>
      </trkpt>
      <trkpt lat="43.46582" lon="1.13113">
        <ele>265.27</ele>
        <time>2019-10-30T14:01:45Z</time>
      </trkpt>
      <trkpt lat="43.46591" lon="1.13093">
        <ele>265.15523957023</ele>
        <time>2019-10-30T14:01:59Z</time>
      </trkpt>
      <trkpt lat="43.46608" lon="1.13062">
        <ele>264.86159253203</ele>
        <time>2019-10-30T14:02:21Z</time>
      </trkpt>
      <trkpt lat="43.46617" lon="1.13046">
        <ele>264.7218946553</ele>
        <time>2019-10-30T14:02:33Z</time>
      </trkpt>
      <trkpt lat="43.46622" lon="1.13036">
        <ele>264.66505453532</ele>
        <time>2019-10-30T14:02:40Z</time>
      </trkpt>
      <trkpt lat="43.46624" lon="1.1303">
        <ele>264.64399187777</ele>
        <time>2019-10-30T14:02:44Z</time>
      </trkpt>
      <trkpt lat="43.46628" lon="1.13019">
        <ele>264.63</ele>
        <time>2019-10-30T14:02:51Z</time>
      </trkpt>
      <trkpt lat="43.46633" lon="1.13003">
        <ele>264.67100037119</ele>
        <time>2019-10-30T14:03:01Z</time>
      </trkpt>
      <trkpt lat="43.4664" lon="1.12981">
        <ele>264.79906466527</ele>
        <time>2019-10-30T14:03:15Z</time>
      </trkpt>
      <trkpt lat="43.46642" lon="1.12975">
        <ele>264.83103287851</ele>
        <time>2019-10-30T14:03:19Z</time>
      </trkpt>
      <trkpt lat="43.46644" lon="1.12966">
        <ele>264.87593546762</ele>
        <time>2019-10-30T14:03:24Z</time>
      </trkpt>
      <trkpt lat="43.46645" lon="1.12962">
        <ele>264.89395444248</ele>
        <time>2019-10-30T14:03:27Z</time>
      </trkpt>
      <trkpt lat="43.46647" lon="1.12959">
        <ele>264.90840692088</ele>
        <time>2019-10-30T14:03:29Z</time>
      </trkpt>
      <trkpt lat="43.4665" lon="1.12956">
        <ele>264.91812742186</ele>
        <time>2019-10-30T14:03:32Z</time>
      </trkpt>
      <trkpt lat="43.46652" lon="1.12955">
        <ele>264.92344680613</ele>
        <time>2019-10-30T14:03:34Z</time>
      </trkpt>
      <trkpt lat="43.46655" lon="1.12955">
        <ele>264.92614646706</ele>
        <time>2019-10-30T14:03:36Z</time>
      </trkpt>
      <trkpt lat="43.46654" lon="1.12955">
        <ele>264.92624331565</ele>
        <time>2019-10-30T14:03:36Z</time>
      </trkpt>
      <trkpt lat="43.46658" lon="1.12952">
        <ele>264.92215565862</ele>
        <time>2019-10-30T14:03:40Z</time>
      </trkpt>
      <trkpt lat="43.4666" lon="1.12951">
        <ele>264.91699371003</ele>
        <time>2019-10-30T14:03:41Z</time>
      </trkpt>
      <trkpt lat="43.46661" lon="1.12951">
        <ele>264.91109698374</ele>
        <time>2019-10-30T14:03:42Z</time>
      </trkpt>
      <trkpt lat="43.46662" lon="1.1295">
        <ele>264.90741529404</ele>
        <time>2019-10-30T14:03:43Z</time>
      </trkpt>
      <trkpt lat="43.46665" lon="1.12951">
        <ele>264.89367697919</ele>
        <time>2019-10-30T14:03:45Z</time>
      </trkpt>
      <trkpt lat="43.46669" lon="1.12953">
        <ele>264.85511098298</ele>
        <time>2019-10-30T14:03:49Z</time>
      </trkpt>
      <trkpt lat="43.46679" lon="1.12955">
        <ele>264.71</ele>
        <time>2019-10-30T14:03:57Z</time>
      </trkpt>
      <trkpt lat="43.46684" lon="1.12957">
        <ele>264.59784293945</ele>
        <time>2019-10-30T14:04:01Z</time>
      </trkpt>
      <trkpt lat="43.46688" lon="1.12958">
        <ele>264.50092624575</ele>
        <time>2019-10-30T14:04:04Z</time>
      </trkpt>
      <trkpt lat="43.46692" lon="1.12961">
        <ele>264.36182827173</ele>
        <time>2019-10-30T14:04:08Z</time>
      </trkpt>
      <trkpt lat="43.46699" lon="1.12966">
        <ele>264.11866180535</ele>
        <time>2019-10-30T14:04:14Z</time>
      </trkpt>
      <trkpt lat="43.46703" lon="1.12968">
        <ele>264.000345282</ele>
        <time>2019-10-30T14:04:17Z</time>
      </trkpt>
      <trkpt lat="43.46708" lon="1.1297">
        <ele>263.82383084415</ele>
        <time>2019-10-30T14:04:22Z</time>
      </trkpt>
      <trkpt lat="43.46722" lon="1.12973">
        <ele>263.38215463653</ele>
        <time>2019-10-30T14:04:33Z</time>
      </trkpt>
      <trkpt lat="43.46726" lon="1.12975">
        <ele>263.28624845582</ele>
        <time>2019-10-30T14:04:36Z</time>
      </trkpt>
      <trkpt lat="43.4673" lon="1.12976">
        <ele>263.20409152478</ele>
        <time>2019-10-30T14:04:39Z</time>
      </trkpt>
      <trkpt lat="43.46742" lon="1.12984">
        <ele>263.02709093928</ele>
        <time>2019-10-30T14:04:50Z</time>
      </trkpt>
      <trkpt lat="43.46746" lon="1.12986">
        <ele>263.02044179809</ele>
        <time>2019-10-30T14:04:54Z</time>
      </trkpt>
      <trkpt lat="43.46751" lon="1.12988">
        <ele>263.05</ele>
        <time>2019-10-30T14:04:58Z</time>
      </trkpt>
      <trkpt lat="43.46762" lon="1.1299">
        <ele>263.26344729532</ele>
        <time>2019-10-30T14:05:07Z</time>
      </trkpt>
      <trkpt lat="43.46777" lon="1.12995">
        <ele>263.82927346298</ele>
        <time>2019-10-30T14:05:19Z</time>
      </trkpt>
      <trkpt lat="43.46783" lon="1.12996">
        <ele>264.10973769725</ele>
        <time>2019-10-30T14:05:23Z</time>
      </trkpt>
      <trkpt lat="43.46788" lon="1.12999">
        <ele>264.40970852786</ele>
        <time>2019-10-30T14:05:28Z</time>
      </trkpt>
      <trkpt lat="43.46791" lon="1.13">
        <ele>264.60824357644</ele>
        <time>2019-10-30T14:05:31Z</time>
      </trkpt>
      <trkpt lat="43.46795" lon="1.13001">
        <ele>264.81779036465</ele>
        <time>2019-10-30T14:05:34Z</time>
      </trkpt>
      <trkpt lat="43.46799" lon="1.13001">
        <ele>265.03074729209</ele>
        <time>2019-10-30T14:05:37Z</time>
      </trkpt>
      <trkpt lat="43.46808" lon="1.12999">
        <ele>265.58688599284</ele>
        <time>2019-10-30T14:05:45Z</time>
      </trkpt>
      <trkpt lat="43.46812" lon="1.12999">
        <ele>265.80267896254</ele>
        <time>2019-10-30T14:05:48Z</time>
      </trkpt>
      <trkpt lat="43.46816" lon="1.12999">
        <ele>266.02119419492</ele>
        <time>2019-10-30T14:05:51Z</time>
      </trkpt>
      <trkpt lat="43.46827" lon="1.13001">
        <ele>266.63423921227</ele>
        <time>2019-10-30T14:06:00Z</time>
      </trkpt>
      <trkpt lat="43.46834" lon="1.13002">
        <ele>266.96</ele>
        <time>2019-10-30T14:06:05Z</time>
      </trkpt>
      <trkpt lat="43.46842" lon="1.13002">
        <ele>267.31201152287</ele>
        <time>2019-10-30T14:06:12Z</time>
      </trkpt>
      <trkpt lat="43.4686" lon="1.13001">
        <ele>267.8509672975</ele>
        <time>2019-10-30T14:06:26Z</time>
      </trkpt>
      <trkpt lat="43.4687" lon="1.13001">
        <ele>268.03625145479</ele>
        <time>2019-10-30T14:06:34Z</time>
      </trkpt>
      <trkpt lat="43.46879" lon="1.13001">
        <ele>268.12494829161</ele>
        <time>2019-10-30T14:06:42Z</time>
      </trkpt>
      <trkpt lat="43.46897" lon="1.13002">
        <ele>268.09694127497</ele>
        <time>2019-10-30T14:06:56Z</time>
      </trkpt>
      <trkpt lat="43.46905" lon="1.13003">
        <ele>267.99628219921</ele>
        <time>2019-10-30T14:07:02Z</time>
      </trkpt>
      <trkpt lat="43.46913" lon="1.13005">
        <ele>267.84</ele>
        <time>2019-10-30T14:07:09Z</time>
      </trkpt>
      <trkpt lat="43.46925" lon="1.13008">
        <ele>267.52265530719</ele>
        <time>2019-10-30T14:07:18Z</time>
      </trkpt>
      <trkpt lat="43.46938" lon="1.13013">
        <ele>266.99631222644</ele>
        <time>2019-10-30T14:07:30Z</time>
      </trkpt>
      <trkpt lat="43.46945" lon="1.13016">
        <ele>266.68419827334</ele>
        <time>2019-10-30T14:07:35Z</time>
      </trkpt>
      <trkpt lat="43.46953" lon="1.13019">
        <ele>266.28072101634</ele>
        <time>2019-10-30T14:07:41Z</time>
      </trkpt>
      <trkpt lat="43.4696" lon="1.13024">
        <ele>265.80692639041</ele>
        <time>2019-10-30T14:07:48Z</time>
      </trkpt>
      <trkpt lat="43.46972" lon="1.13033">
        <ele>264.91370093823</ele>
        <time>2019-10-30T14:07:59Z</time>
      </trkpt>
      <trkpt lat="43.46978" lon="1.13037">
        <ele>264.46134005128</ele>
        <time>2019-10-30T14:08:04Z</time>
      </trkpt>
      <trkpt lat="43.46984" lon="1.1304">
        <ele>263.99458529025</ele>
        <time>2019-10-30T14:08:09Z</time>
      </trkpt>
      <trkpt lat="43.46991" lon="1.13043">
        <ele>263.37</ele>
        <time>2019-10-30T14:08:15Z</time>
      </trkpt>
      <trkpt lat="43.47026" lon="1.13057">
        <ele>260.00816332749</ele>
        <time>2019-10-30T14:08:44Z</time>
      </trkpt>
      <trkpt lat="43.47039" lon="1.13063">
        <ele>258.62311691382</ele>
        <time>2019-10-30T14:08:55Z</time>
      </trkpt>
      <trkpt lat="43.47056" lon="1.13071">
        <ele>256.8</ele>
        <time>2019-10-30T14:09:10Z</time>
      </trkpt>
      <trkpt lat="43.47088" lon="1.13086">
        <ele>253.71441308755</ele>
        <time>2019-10-30T14:09:37Z</time>
      </trkpt>
      <trkpt lat="43.47097" lon="1.1309">
        <ele>252.96205643482</ele>
        <time>2019-10-30T14:09:44Z</time>
      </trkpt>
      <trkpt lat="43.47105" lon="1.13094">
        <ele>252.21082649</ele>
        <time>2019-10-30T14:09:51Z</time>
      </trkpt>
      <trkpt lat="43.47122" lon="1.13104">
        <ele>250.63744890077</ele>
        <time>2019-10-30T14:10:06Z</time>
      </trkpt>
      <trkpt lat="43.47136" lon="1.1311">
        <ele>249.37</ele>
        <time>2019-10-30T14:10:19Z</time>
      </trkpt>
      <trkpt lat="43.47162" lon="1.13123">
        <ele>247.10795140504</ele>
        <time>2019-10-30T14:10:40Z</time>
      </trkpt>
      <trkpt lat="43.47178" lon="1.1313">
        <ele>245.73111804209</ele>
        <time>2019-10-30T14:10:54Z</time>
      </trkpt>
      <trkpt lat="43.47183" lon="1.13133">
        <ele>245.24911995972</ele>
        <time>2019-10-30T14:10:58Z</time>
      </trkpt>
      <trkpt lat="43.47193" lon="1.13136">
        <ele>244.48156127714</ele>
        <time>2019-10-30T14:11:06Z</time>
      </trkpt>
      <trkpt lat="43.47197" lon="1.13137">
        <ele>244.09666184719</ele>
        <time>2019-10-30T14:11:10Z</time>
      </trkpt>
      <trkpt lat="43.47203" lon="1.13138">
        <ele>243.6191409789</ele>
        <time>2019-10-30T14:11:15Z</time>
      </trkpt>
      <trkpt lat="43.4721" lon="1.13138">
        <ele>243.13795305322</ele>
        <time>2019-10-30T14:11:20Z</time>
      </trkpt>
      <trkpt lat="43.47216" lon="1.13138">
        <ele>242.66</ele>
        <time>2019-10-30T14:11:25Z</time>
      </trkpt>
      <trkpt lat="43.47237" lon="1.13137">
        <ele>241.18116426977</ele>
        <time>2019-10-30T14:11:42Z</time>
      </trkpt>
      <trkpt lat="43.47246" lon="1.13137">
        <ele>240.60281701214</ele>
        <time>2019-10-30T14:11:49Z</time>
      </trkpt>
      <trkpt lat="43.47251" lon="1.13138">
        <ele>240.28493131715</ele>
        <time>2019-10-30T14:11:53Z</time>
      </trkpt>
      <trkpt lat="43.47255" lon="1.13139">
        <ele>240.04809098693</ele>
        <time>2019-10-30T14:11:56Z</time>
      </trkpt>
      <trkpt lat="43.47258" lon="1.1314">
        <ele>239.81365246724</ele>
        <time>2019-10-30T14:11:59Z</time>
      </trkpt>
      <trkpt lat="43.47271" lon="1.13146">
        <ele>239.08291031462</ele>
        <time>2019-10-30T14:12:10Z</time>
      </trkpt>
      <trkpt lat="43.47276" lon="1.13148">
        <ele>238.81089236979</ele>
        <time>2019-10-30T14:12:14Z</time>
      </trkpt>
      <trkpt lat="43.47286" lon="1.13151">
        <ele>238.30555221006</ele>
        <time>2019-10-30T14:12:22Z</time>
      </trkpt>
      <trkpt lat="43.47293" lon="1.13153">
        <ele>237.96615130134</ele>
        <time>2019-10-30T14:12:28Z</time>
      </trkpt>
      <trkpt lat="43.47299" lon="1.13156">
        <ele>237.71</ele>
        <time>2019-10-30T14:12:33Z</time>
      </trkpt>
      <trkpt lat="43.47316" lon="1.13165">
        <ele>237.1152576619</ele>
        <time>2019-10-30T14:12:47Z</time>
      </trkpt>
      <trkpt lat="43.47337" lon="1.13176">
        <ele>236.57674629388</ele>
        <time>2019-10-30T14:13:05Z</time>
      </trkpt>
      <trkpt lat="43.47347" lon="1.13183">
        <ele>236.39382089192</ele>
        <time>2019-10-30T14:13:15Z</time>
      </trkpt>
      <trkpt lat="43.47351" lon="1.13186">
        <ele>236.33064120342</ele>
        <time>2019-10-30T14:13:18Z</time>
      </trkpt>
      <trkpt lat="43.47356" lon="1.1319">
        <ele>236.27694895657</ele>
        <time>2019-10-30T14:13:23Z</time>
      </trkpt>
      <trkpt lat="43.47361" lon="1.13194">
        <ele>236.22428578868</ele>
        <time>2019-10-30T14:13:27Z</time>
      </trkpt>
      <trkpt lat="43.47367" lon="1.13201">
        <ele>236.18</ele>
        <time>2019-10-30T14:13:34Z</time>
      </trkpt>
      <trkpt lat="43.47383" lon="1.13221">
        <ele>236.16229055702</ele>
        <time>2019-10-30T14:13:51Z</time>
      </trkpt>
      <trkpt lat="43.47395" lon="1.13235">
        <ele>236.2377389322</ele>
        <time>2019-10-30T14:14:04Z</time>
      </trkpt>
      <trkpt lat="43.47397" lon="1.13238">
        <ele>236.26040049991</ele>
        <time>2019-10-30T14:14:06Z</time>
      </trkpt>
      <trkpt lat="43.47399" lon="1.13241">
        <ele>236.27917296366</ele>
        <time>2019-10-30T14:14:08Z</time>
      </trkpt>
      <trkpt lat="43.47399" lon="1.13244">
        <ele>236.29933425432</ele>
        <time>2019-10-30T14:14:10Z</time>
      </trkpt>
      <trkpt lat="43.474" lon="1.13244">
        <ele>236.30568445157</ele>
        <time>2019-10-30T14:14:10Z</time>
      </trkpt>
      <trkpt lat="43.47401" lon="1.13245">
        <ele>236.31893320015</ele>
        <time>2019-10-30T14:14:12Z</time>
      </trkpt>
      <trkpt lat="43.47406" lon="1.13253">
        <ele>236.39798553328</ele>
        <time>2019-10-30T14:14:18Z</time>
      </trkpt>
      <trkpt lat="43.47407" lon="1.13255">
        <ele>236.41797274582</ele>
        <time>2019-10-30T14:14:19Z</time>
      </trkpt>
      <trkpt lat="43.47415" lon="1.13263">
        <ele>236.52842785124</ele>
        <time>2019-10-30T14:14:26Z</time>
      </trkpt>
      <trkpt lat="43.47418" lon="1.13265">
        <ele>236.57835084396</ele>
        <time>2019-10-30T14:14:30Z</time>
      </trkpt>
      <trkpt lat="43.47421" lon="1.13267">
        <ele>236.62885215145</ele>
        <time>2019-10-30T14:14:32Z</time>
      </trkpt>
      <trkpt lat="43.47426" lon="1.13269">
        <ele>236.6988920061</ele>
        <time>2019-10-30T14:14:36Z</time>
      </trkpt>
      <trkpt lat="43.47432" lon="1.13271">
        <ele>236.79</ele>
        <time>2019-10-30T14:14:41Z</time>
      </trkpt>
      <trkpt lat="43.47439" lon="1.13271">
        <ele>236.90526845324</ele>
        <time>2019-10-30T14:14:47Z</time>
      </trkpt>
      <trkpt lat="43.47445" lon="1.1327">
        <ele>237.0047304722</ele>
        <time>2019-10-30T14:14:52Z</time>
      </trkpt>
      <trkpt lat="43.47462" lon="1.13269">
        <ele>237.28962356288</ele>
        <time>2019-10-30T14:15:05Z</time>
      </trkpt>
      <trkpt lat="43.4747" lon="1.13267">
        <ele>237.42800038254</ele>
        <time>2019-10-30T14:15:12Z</time>
      </trkpt>
      <trkpt lat="43.47475" lon="1.13266">
        <ele>237.50636080324</ele>
        <time>2019-10-30T14:15:16Z</time>
      </trkpt>
      <trkpt lat="43.47489" lon="1.13261">
        <ele>237.72819464503</ele>
        <time>2019-10-30T14:15:28Z</time>
      </trkpt>
      <trkpt lat="43.47493" lon="1.1326">
        <ele>237.77642463684</ele>
        <time>2019-10-30T14:15:31Z</time>
      </trkpt>
      <trkpt lat="43.47514" lon="1.13257">
        <ele>237.99</ele>
        <time>2019-10-30T14:15:47Z</time>
      </trkpt>
      <trkpt lat="43.4752" lon="1.13256">
        <ele>238.02852003472</ele>
        <time>2019-10-30T14:15:52Z</time>
      </trkpt>
      <trkpt lat="43.47523" lon="1.13256">
        <ele>238.04626739189</ele>
        <time>2019-10-30T14:15:55Z</time>
      </trkpt>
      <trkpt lat="43.47525" lon="1.13257">
        <ele>238.0569283389</ele>
        <time>2019-10-30T14:15:57Z</time>
      </trkpt>
      <trkpt lat="43.47527" lon="1.13258">
        <ele>238.06651601828</ele>
        <time>2019-10-30T14:15:58Z</time>
      </trkpt>
      <trkpt lat="43.47529" lon="1.13259">
        <ele>238.07542418265</ele>
        <time>2019-10-30T14:16:00Z</time>
      </trkpt>
      <trkpt lat="43.4753" lon="1.1326">
        <ele>238.08306628111</ele>
        <time>2019-10-30T14:16:01Z</time>
      </trkpt>
      <trkpt lat="43.47531" lon="1.13262">
        <ele>238.08964192867</ele>
        <time>2019-10-30T14:16:02Z</time>
      </trkpt>
      <trkpt lat="43.47531" lon="1.13263">
        <ele>238.09591839782</ele>
        <time>2019-10-30T14:16:03Z</time>
      </trkpt>
      <trkpt lat="43.47532" lon="1.13268">
        <ele>238.11054798308</ele>
        <time>2019-10-30T14:16:06Z</time>
      </trkpt>
      <trkpt lat="43.47533" lon="1.13302">
        <ele>238.32469836303</ele>
        <time>2019-10-30T14:16:25Z</time>
      </trkpt>
      <trkpt lat="43.47533" lon="1.1334">
        <ele>239.03734695675</ele>
        <time>2019-10-30T14:16:48Z</time>
      </trkpt>
      <trkpt lat="43.47534" lon="1.13343">
        <ele>239.13226125669</ele>
        <time>2019-10-30T14:16:50Z</time>
      </trkpt>
      <trkpt lat="43.47535" lon="1.13346">
        <ele>239.24467996746</ele>
        <time>2019-10-30T14:16:52Z</time>
      </trkpt>
      <trkpt lat="43.47536" lon="1.13349">
        <ele>239.34931960609</ele>
        <time>2019-10-30T14:16:54Z</time>
      </trkpt>
      <trkpt lat="43.47537" lon="1.13351">
        <ele>239.43427528665</ele>
        <time>2019-10-30T14:16:55Z</time>
      </trkpt>
      <trkpt lat="43.47538" lon="1.13351">
        <ele>239.47</ele>
        <time>2019-10-30T14:16:55Z</time>
      </trkpt>
      <trkpt lat="43.47541" lon="1.13352">
        <ele>239.62956006069</ele>
        <time>2019-10-30T14:16:58Z</time>
      </trkpt>
      <trkpt lat="43.47544" lon="1.13354">
        <ele>239.82847966679</ele>
        <time>2019-10-30T14:17:01Z</time>
      </trkpt>
      <trkpt lat="43.4755" lon="1.1336">
        <ele>240.31302060515</ele>
        <time>2019-10-30T14:17:07Z</time>
      </trkpt>
      <trkpt lat="43.4756" lon="1.13368">
        <ele>241.17113208324</ele>
        <time>2019-10-30T14:17:16Z</time>
      </trkpt>
      <trkpt lat="43.4758" lon="1.13382">
        <ele>243.17500350302</ele>
        <time>2019-10-30T14:17:34Z</time>
      </trkpt>
      <trkpt lat="43.47598" lon="1.13397">
        <ele>245.2359467435</ele>
        <time>2019-10-30T14:17:51Z</time>
      </trkpt>
      <trkpt lat="43.47604" lon="1.13401">
        <ele>245.90000989121</ele>
        <time>2019-10-30T14:17:56Z</time>
      </trkpt>
      <trkpt lat="43.47608" lon="1.13403">
        <ele>246.31</ele>
        <time>2019-10-30T14:17:59Z</time>
      </trkpt>
      <trkpt lat="43.4761" lon="1.13404">
        <ele>246.55663621467</ele>
        <time>2019-10-30T14:18:01Z</time>
      </trkpt>
      <trkpt lat="43.47623" lon="1.13414">
        <ele>247.98190343786</ele>
        <time>2019-10-30T14:18:13Z</time>
      </trkpt>
      <trkpt lat="43.4764" lon="1.13427">
        <ele>249.95571107514</ele>
        <time>2019-10-30T14:18:29Z</time>
      </trkpt>
      <trkpt lat="43.47659" lon="1.13442">
        <ele>252.2903727884</ele>
        <time>2019-10-30T14:18:46Z</time>
      </trkpt>
      <trkpt lat="43.47659" lon="1.13442">
        <ele>252.33489262018</ele>
        <time>2019-10-30T14:18:47Z</time>
      </trkpt>
      <trkpt lat="43.47659" lon="1.13442">
        <ele>252.38659293042</ele>
        <time>2019-10-30T14:18:47Z</time>
      </trkpt>
      <trkpt lat="43.4766" lon="1.13442">
        <ele>252.44155585186</ele>
        <time>2019-10-30T14:18:47Z</time>
      </trkpt>
      <trkpt lat="43.47661" lon="1.13442">
        <ele>252.61626747268</ele>
        <time>2019-10-30T14:18:49Z</time>
      </trkpt>
      <trkpt lat="43.47669" lon="1.13447">
        <ele>253.59</ele>
        <time>2019-10-30T14:18:56Z</time>
      </trkpt>
      <trkpt lat="43.47684" lon="1.13458">
        <ele>255.55836502884</ele>
        <time>2019-10-30T14:19:09Z</time>
      </trkpt>
      <trkpt lat="43.47697" lon="1.13467">
        <ele>257.3589720463</ele>
        <time>2019-10-30T14:19:21Z</time>
      </trkpt>
      <trkpt lat="43.47713" lon="1.13479">
        <ele>259.52540508946</ele>
        <time>2019-10-30T14:19:35Z</time>
      </trkpt>
      <trkpt lat="43.47721" lon="1.13484">
        <ele>260.6139249061</ele>
        <time>2019-10-30T14:19:43Z</time>
      </trkpt>
      <trkpt lat="43.47744" lon="1.13494">
        <ele>263.07180810587</ele>
        <time>2019-10-30T14:20:02Z</time>
      </trkpt>
      <trkpt lat="43.47746" lon="1.13495">
        <ele>263.33</ele>
        <time>2019-10-30T14:20:04Z</time>
      </trkpt>
      <trkpt lat="43.47762" lon="1.135">
        <ele>264.65206233684</ele>
        <time>2019-10-30T14:20:17Z</time>
      </trkpt>
      <trkpt lat="43.47766" lon="1.13502">
        <ele>264.95260527755</ele>
        <time>2019-10-30T14:20:21Z</time>
      </trkpt>
      <trkpt lat="43.47778" lon="1.13507">
        <ele>265.69816709665</ele>
        <time>2019-10-30T14:20:30Z</time>
      </trkpt>
      <trkpt lat="43.4779" lon="1.13512">
        <ele>266.31792577237</ele>
        <time>2019-10-30T14:20:41Z</time>
      </trkpt>
      <trkpt lat="43.47792" lon="1.13514">
        <ele>266.44103386687</ele>
        <time>2019-10-30T14:20:43Z</time>
      </trkpt>
      <trkpt lat="43.47794" lon="1.13516">
        <ele>266.51273766478</ele>
        <time>2019-10-30T14:20:44Z</time>
      </trkpt>
      <trkpt lat="43.47794" lon="1.13516">
        <ele>266.5195461198</ele>
        <time>2019-10-30T14:20:44Z</time>
      </trkpt>
      <trkpt lat="43.47794" lon="1.13516">
        <ele>266.52632518337</ele>
        <time>2019-10-30T14:20:45Z</time>
      </trkpt>
      <trkpt lat="43.47794" lon="1.13516">
        <ele>266.55294440167</ele>
        <time>2019-10-30T14:20:45Z</time>
      </trkpt>
      <trkpt lat="43.47796" lon="1.13516">
        <ele>266.59418633358</ele>
        <time>2019-10-30T14:20:46Z</time>
      </trkpt>
      <trkpt lat="43.47797" lon="1.13517">
        <ele>266.66681614634</ele>
        <time>2019-10-30T14:20:48Z</time>
      </trkpt>
      <trkpt lat="43.47809" lon="1.13526">
        <ele>267.03767101712</ele>
        <time>2019-10-30T14:20:58Z</time>
      </trkpt>
      <trkpt lat="43.47822" lon="1.13534">
        <ele>267.28317935441</ele>
        <time>2019-10-30T14:21:10Z</time>
      </trkpt>
      <trkpt lat="43.47826" lon="1.13537">
        <ele>267.32</ele>
        <time>2019-10-30T14:21:13Z</time>
      </trkpt>
      <trkpt lat="43.4783" lon="1.13541">
        <ele>267.34286838139</ele>
        <time>2019-10-30T14:21:17Z</time>
      </trkpt>
      <trkpt lat="43.47836" lon="1.13548">
        <ele>267.34162450263</ele>
        <time>2019-10-30T14:21:24Z</time>
      </trkpt>
      <trkpt lat="43.47848" lon="1.13559">
        <ele>267.23110850827</ele>
        <time>2019-10-30T14:21:35Z</time>
      </trkpt>
      <trkpt lat="43.4786" lon="1.13571">
        <ele>267.02639211442</ele>
        <time>2019-10-30T14:21:47Z</time>
      </trkpt>
      <trkpt lat="43.47866" lon="1.13576">
        <ele>266.88928654537</ele>
        <time>2019-10-30T14:21:52Z</time>
      </trkpt>
      <trkpt lat="43.47871" lon="1.1358">
        <ele>266.75715562484</ele>
        <time>2019-10-30T14:21:58Z</time>
      </trkpt>
      <trkpt lat="43.47886" lon="1.13591">
        <ele>266.39533147516</ele>
        <time>2019-10-30T14:22:11Z</time>
      </trkpt>
      <trkpt lat="43.47891" lon="1.13595">
        <ele>266.26</ele>
        <time>2019-10-30T14:22:15Z</time>
      </trkpt>
      <trkpt lat="43.47899" lon="1.13599">
        <ele>266.0759254633</ele>
        <time>2019-10-30T14:22:22Z</time>
      </trkpt>
      <trkpt lat="43.47913" lon="1.13606">
        <ele>265.75701572982</ele>
        <time>2019-10-30T14:22:34Z</time>
      </trkpt>
      <trkpt lat="43.47932" lon="1.13617">
        <ele>265.28511048827</ele>
        <time>2019-10-30T14:22:51Z</time>
      </trkpt>
      <trkpt lat="43.47938" lon="1.1362">
        <ele>265.13054141758</ele>
        <time>2019-10-30T14:22:56Z</time>
      </trkpt>
      <trkpt lat="43.47955" lon="1.13629">
        <ele>264.63878421835</ele>
        <time>2019-10-30T14:23:11Z</time>
      </trkpt>
      <trkpt lat="43.4797" lon="1.13636">
        <ele>264.16</ele>
        <time>2019-10-30T14:23:23Z</time>
      </trkpt>
      <trkpt lat="43.47982" lon="1.13642">
        <ele>263.72828852155</ele>
        <time>2019-10-30T14:23:33Z</time>
      </trkpt>
      <trkpt lat="43.48027" lon="1.13666">
        <ele>261.94079601579</ele>
        <time>2019-10-30T14:24:12Z</time>
      </trkpt>
      <trkpt lat="43.48033" lon="1.13669">
        <ele>261.74043593919</ele>
        <time>2019-10-30T14:24:17Z</time>
      </trkpt>
      <trkpt lat="43.48036" lon="1.1367">
        <ele>261.6366451741</ele>
        <time>2019-10-30T14:24:19Z</time>
      </trkpt>
      <trkpt lat="43.48038" lon="1.13671">
        <ele>261.57942818704</ele>
        <time>2019-10-30T14:24:21Z</time>
      </trkpt>
      <trkpt lat="43.48039" lon="1.13671">
        <ele>261.53019726099</ele>
        <time>2019-10-30T14:24:22Z</time>
      </trkpt>
      <trkpt lat="43.48043" lon="1.1367">
        <ele>261.40762928703</ele>
        <time>2019-10-30T14:24:25Z</time>
      </trkpt>
      <trkpt lat="43.48045" lon="1.1367">
        <ele>261.34766363611</ele>
        <time>2019-10-30T14:24:27Z</time>
      </trkpt>
      <trkpt lat="43.48048" lon="1.13672">
        <ele>261.26</ele>
        <time>2019-10-30T14:24:30Z</time>
      </trkpt>
      <trkpt lat="43.48054" lon="1.13676">
        <ele>261.10348735346</ele>
        <time>2019-10-30T14:24:35Z</time>
      </trkpt>
      <trkpt lat="43.48056" lon="1.13677">
        <ele>261.05145954179</ele>
        <time>2019-10-30T14:24:36Z</time>
      </trkpt>
      <trkpt lat="43.48061" lon="1.13679">
        <ele>260.95143603921</ele>
        <time>2019-10-30T14:24:40Z</time>
      </trkpt>
      <trkpt lat="43.48065" lon="1.1368">
        <ele>260.86039005706</ele>
        <time>2019-10-30T14:24:44Z</time>
      </trkpt>
      <trkpt lat="43.48071" lon="1.13683">
        <ele>260.76763449112</ele>
        <time>2019-10-30T14:24:49Z</time>
      </trkpt>
      <trkpt lat="43.48075" lon="1.13684">
        <ele>260.72441265391</ele>
        <time>2019-10-30T14:24:52Z</time>
      </trkpt>
      <trkpt lat="43.48081" lon="1.13687">
        <ele>260.67293623212</ele>
        <time>2019-10-30T14:24:57Z</time>
      </trkpt>
      <trkpt lat="43.48095" lon="1.13696">
        <ele>260.66934935719</ele>
        <time>2019-10-30T14:25:09Z</time>
      </trkpt>
      <trkpt lat="43.48114" lon="1.13707">
        <ele>261</ele>
        <time>2019-10-30T14:25:27Z</time>
      </trkpt>
      <trkpt lat="43.48127" lon="1.13713">
        <ele>261.42419449554</ele>
        <time>2019-10-30T14:25:37Z</time>
      </trkpt>
      <trkpt lat="43.48145" lon="1.13724">
        <ele>262.29523509892</ele>
        <time>2019-10-30T14:25:53Z</time>
      </trkpt>
      <trkpt lat="43.48149" lon="1.13726">
        <ele>262.49188872694</ele>
        <time>2019-10-30T14:25:56Z</time>
      </trkpt>
      <trkpt lat="43.4817" lon="1.13736">
        <ele>263.66069111709</ele>
        <time>2019-10-30T14:26:14Z</time>
      </trkpt>
      <trkpt lat="43.48188" lon="1.13746">
        <ele>264.65045524148</ele>
        <time>2019-10-30T14:26:29Z</time>
      </trkpt>
      <trkpt lat="43.48197" lon="1.1375">
        <ele>265.1</ele>
        <time>2019-10-30T14:26:37Z</time>
      </trkpt>
      <trkpt lat="43.48224" lon="1.13761">
        <ele>266.15054037455</ele>
        <time>2019-10-30T14:27:00Z</time>
      </trkpt>
      <trkpt lat="43.48267" lon="1.13781">
        <ele>267</ele>
        <time>2019-10-30T14:27:36Z</time>
      </trkpt>
      <trkpt lat="43.48279" lon="1.13785">
        <ele>267.0855377378</ele>
        <time>2019-10-30T14:27:46Z</time>
      </trkpt>
      <trkpt lat="43.48309" lon="1.13794">
        <ele>267.12026744232</ele>
        <time>2019-10-30T14:28:11Z</time>
      </trkpt>
      <trkpt lat="43.48315" lon="1.13797">
        <ele>267.10642480188</ele>
        <time>2019-10-30T14:28:16Z</time>
      </trkpt>
      <trkpt lat="43.48321" lon="1.138">
        <ele>267.08926036562</ele>
        <time>2019-10-30T14:28:21Z</time>
      </trkpt>
      <trkpt lat="43.48343" lon="1.13811">
        <ele>267.01932560704</ele>
        <time>2019-10-30T14:28:40Z</time>
      </trkpt>
      <trkpt lat="43.48352" lon="1.13816">
        <ele>267</ele>
        <time>2019-10-30T14:28:48Z</time>
      </trkpt>
      <trkpt lat="43.48359" lon="1.1382">
        <ele>266.99355660578</ele>
        <time>2019-10-30T14:28:53Z</time>
      </trkpt>
      <trkpt lat="43.48369" lon="1.13827">
        <ele>266.99309522979</ele>
        <time>2019-10-30T14:29:03Z</time>
      </trkpt>
      <trkpt lat="43.4838" lon="1.13835">
        <ele>266.99926208604</ele>
        <time>2019-10-30T14:29:12Z</time>
      </trkpt>
      <trkpt lat="43.48386" lon="1.13841">
        <ele>267.00277465532</ele>
        <time>2019-10-30T14:29:19Z</time>
      </trkpt>
      <trkpt lat="43.48395" lon="1.1385">
        <ele>267.00115704355</ele>
        <time>2019-10-30T14:29:27Z</time>
      </trkpt>
      <trkpt lat="43.48397" lon="1.13852">
        <ele>266.99925757185</ele>
        <time>2019-10-30T14:29:29Z</time>
      </trkpt>
      <trkpt lat="43.484" lon="1.13855">
        <ele>266.99487663471</ele>
        <time>2019-10-30T14:29:32Z</time>
      </trkpt>
      <trkpt lat="43.48402" lon="1.1386">
        <ele>266.98768922067</ele>
        <time>2019-10-30T14:29:35Z</time>
      </trkpt>
      <trkpt lat="43.48404" lon="1.13863">
        <ele>266.98091009432</ele>
        <time>2019-10-30T14:29:38Z</time>
      </trkpt>
      <trkpt lat="43.48404" lon="1.13865">
        <ele>266.97682541542</ele>
        <time>2019-10-30T14:29:39Z</time>
      </trkpt>
      <trkpt lat="43.48405" lon="1.13871">
        <ele>266.96262873396</ele>
        <time>2019-10-30T14:29:42Z</time>
      </trkpt>
      <trkpt lat="43.48405" lon="1.13875">
        <ele>266.9515372662</ele>
        <time>2019-10-30T14:29:45Z</time>
      </trkpt>
      <trkpt lat="43.48405" lon="1.1388">
        <ele>266.93188840038</ele>
        <time>2019-10-30T14:29:48Z</time>
      </trkpt>
      <trkpt lat="43.48403" lon="1.1389">
        <ele>266.89</ele>
        <time>2019-10-30T14:29:53Z</time>
      </trkpt>
      <trkpt lat="43.48399" lon="1.13907">
        <ele>266.77268548914</ele>
        <time>2019-10-30T14:30:04Z</time>
      </trkpt>
      <trkpt lat="43.48399" lon="1.13913">
        <ele>266.73054449882</ele>
        <time>2019-10-30T14:30:07Z</time>
      </trkpt>
      <trkpt lat="43.48397" lon="1.1393">
        <ele>266.57754182841</ele>
        <time>2019-10-30T14:30:18Z</time>
      </trkpt>
      <trkpt lat="43.48394" lon="1.13949">
        <ele>266.4059372449</ele>
        <time>2019-10-30T14:30:29Z</time>
      </trkpt>
      <trkpt lat="43.48393" lon="1.13957">
        <ele>266.32482416809</ele>
        <time>2019-10-30T14:30:34Z</time>
      </trkpt>
      <trkpt lat="43.48393" lon="1.13975">
        <ele>266.16962987379</ele>
        <time>2019-10-30T14:30:44Z</time>
      </trkpt>
      <trkpt lat="43.48393" lon="1.13983">
        <ele>266.11380893186</ele>
        <time>2019-10-30T14:30:49Z</time>
      </trkpt>
      <trkpt lat="43.4839" lon="1.13999">
        <ele>266.01</ele>
        <time>2019-10-30T14:30:58Z</time>
      </trkpt>
      <trkpt lat="43.4839" lon="1.14008">
        <ele>265.96892213048</ele>
        <time>2019-10-30T14:31:03Z</time>
      </trkpt>
      <trkpt lat="43.4839" lon="1.14015">
        <ele>265.94392768628</ele>
        <time>2019-10-30T14:31:07Z</time>
      </trkpt>
      <trkpt lat="43.48391" lon="1.14021">
        <ele>265.92462663812</ele>
        <time>2019-10-30T14:31:11Z</time>
      </trkpt>
      <trkpt lat="43.48394" lon="1.14027">
        <ele>265.91024183089</ele>
        <time>2019-10-30T14:31:15Z</time>
      </trkpt>
      <trkpt lat="43.48395" lon="1.14029">
        <ele>265.90436399943</ele>
        <time>2019-10-30T14:31:17Z</time>
      </trkpt>
      <trkpt lat="43.48397" lon="1.14031">
        <ele>265.89929728898</ele>
        <time>2019-10-30T14:31:19Z</time>
      </trkpt>
      <trkpt lat="43.48401" lon="1.14033">
        <ele>265.89267037118</ele>
        <time>2019-10-30T14:31:22Z</time>
      </trkpt>
      <trkpt lat="43.48405" lon="1.14034">
        <ele>265.88682406514</ele>
        <time>2019-10-30T14:31:25Z</time>
      </trkpt>
      <trkpt lat="43.48421" lon="1.14035">
        <ele>265.869985629</ele>
        <time>2019-10-30T14:31:38Z</time>
      </trkpt>
      <trkpt lat="43.48426" lon="1.14036">
        <ele>265.86424977447</ele>
        <time>2019-10-30T14:31:42Z</time>
      </trkpt>
      <trkpt lat="43.48452" lon="1.14041">
        <ele>265.79</ele>
        <time>2019-10-30T14:32:03Z</time>
      </trkpt>
      <trkpt lat="43.48464" lon="1.14043">
        <ele>265.71551077643</ele>
        <time>2019-10-30T14:32:13Z</time>
      </trkpt>
      <trkpt lat="43.48474" lon="1.14044">
        <ele>265.62865587307</ele>
        <time>2019-10-30T14:32:21Z</time>
      </trkpt>
      <trkpt lat="43.48517" lon="1.14045">
        <ele>265.16</ele>
        <time>2019-10-30T14:32:56Z</time>
      </trkpt>
      <trkpt lat="43.48554" lon="1.14046">
        <ele>264.79143027177</ele>
        <time>2019-10-30T14:33:25Z</time>
      </trkpt>
      <trkpt lat="43.48561" lon="1.14046">
        <ele>264.74112013849</ele>
        <time>2019-10-30T14:33:31Z</time>
      </trkpt>
      <trkpt lat="43.48578" lon="1.14048">
        <ele>264.63630910826</ele>
        <time>2019-10-30T14:33:45Z</time>
      </trkpt>
      <trkpt lat="43.48587" lon="1.14048">
        <ele>264.60555136648</ele>
        <time>2019-10-30T14:33:51Z</time>
      </trkpt>
      <trkpt lat="43.48592" lon="1.14048">
        <ele>264.59171863045</ele>
        <time>2019-10-30T14:33:56Z</time>
      </trkpt>
      <trkpt lat="43.48601" lon="1.14047">
        <ele>264.58330381109</ele>
        <time>2019-10-30T14:34:03Z</time>
      </trkpt>
      <trkpt lat="43.48608" lon="1.14047">
        <ele>264.59</ele>
        <time>2019-10-30T14:34:09Z</time>
      </trkpt>
      <trkpt lat="43.48632" lon="1.14048">
        <ele>264.6762002073</ele>
        <time>2019-10-30T14:34:27Z</time>
      </trkpt>
      <trkpt lat="43.48665" lon="1.14048">
        <ele>264.77663377104</ele>
        <time>2019-10-30T14:34:53Z</time>
      </trkpt>
      <trkpt lat="43.48671" lon="1.14048">
        <ele>264.76771676867</ele>
        <time>2019-10-30T14:34:58Z</time>
      </trkpt>
      <trkpt lat="43.48682" lon="1.14047">
        <ele>264.71290581819</ele>
        <time>2019-10-30T14:35:07Z</time>
      </trkpt>
      <trkpt lat="43.48686" lon="1.14048">
        <ele>264.67177433431</ele>
        <time>2019-10-30T14:35:11Z</time>
      </trkpt>
      <trkpt lat="43.48687" lon="1.14048">
        <ele>264.66009569858</ele>
        <time>2019-10-30T14:35:12Z</time>
      </trkpt>
      <trkpt lat="43.48689" lon="1.1405">
        <ele>264.63530744532</ele>
        <time>2019-10-30T14:35:14Z</time>
      </trkpt>
      <trkpt lat="43.48692" lon="1.14053">
        <ele>264.59</ele>
        <time>2019-10-30T14:35:16Z</time>
      </trkpt>
      <trkpt lat="43.48693" lon="1.14056">
        <ele>264.55082494205</ele>
        <time>2019-10-30T14:35:19Z</time>
      </trkpt>
      <trkpt lat="43.487" lon="1.14075">
        <ele>264.25509557154</ele>
        <time>2019-10-30T14:35:31Z</time>
      </trkpt>
      <trkpt lat="43.48704" lon="1.1409">
        <ele>263.94080506756</ele>
        <time>2019-10-30T14:35:40Z</time>
      </trkpt>
      <trkpt lat="43.48707" lon="1.14097">
        <ele>263.75278015372</ele>
        <time>2019-10-30T14:35:45Z</time>
      </trkpt>
      <trkpt lat="43.48714" lon="1.14113">
        <ele>263.2848385832</ele>
        <time>2019-10-30T14:35:55Z</time>
      </trkpt>
      <trkpt lat="43.48716" lon="1.1412">
        <ele>263.05847439685</ele>
        <time>2019-10-30T14:36:00Z</time>
      </trkpt>
      <trkpt lat="43.48717" lon="1.14124">
        <ele>262.96555828749</ele>
        <time>2019-10-30T14:36:02Z</time>
      </trkpt>
      <trkpt lat="43.48717" lon="1.14133">
        <ele>262.68150991262</ele>
        <time>2019-10-30T14:36:08Z</time>
      </trkpt>
      <trkpt lat="43.48717" lon="1.14138">
        <ele>262.53268351347</ele>
        <time>2019-10-30T14:36:10Z</time>
      </trkpt>
      <trkpt lat="43.48717" lon="1.14142">
        <ele>262.38248203597</ele>
        <time>2019-10-30T14:36:13Z</time>
      </trkpt>
      <trkpt lat="43.48715" lon="1.14152">
        <ele>262.07</ele>
        <time>2019-10-30T14:36:19Z</time>
      </trkpt>
      <trkpt lat="43.48712" lon="1.14164">
        <ele>261.64624535531</ele>
        <time>2019-10-30T14:36:26Z</time>
      </trkpt>
      <trkpt lat="43.48707" lon="1.14177">
        <ele>261.14423283278</ele>
        <time>2019-10-30T14:36:35Z</time>
      </trkpt>
      <trkpt lat="43.48702" lon="1.14195">
        <ele>260.56356289372</ele>
        <time>2019-10-30T14:36:46Z</time>
      </trkpt>
      <trkpt lat="43.48695" lon="1.14216">
        <ele>260.03271457803</ele>
        <time>2019-10-30T14:37:00Z</time>
      </trkpt>
      <trkpt lat="43.48694" lon="1.1422">
        <ele>259.95801750611</ele>
        <time>2019-10-30T14:37:02Z</time>
      </trkpt>
      <trkpt lat="43.48693" lon="1.14225">
        <ele>259.89497343778</ele>
        <time>2019-10-30T14:37:05Z</time>
      </trkpt>
      <trkpt lat="43.48692" lon="1.14233">
        <ele>259.82043187897</ele>
        <time>2019-10-30T14:37:10Z</time>
      </trkpt>
      <trkpt lat="43.48691" lon="1.14251">
        <ele>259.8226573276</ele>
        <time>2019-10-30T14:37:20Z</time>
      </trkpt>
      <trkpt lat="43.4869" lon="1.14263">
        <ele>259.98</ele>
        <time>2019-10-30T14:37:27Z</time>
      </trkpt>
      <trkpt lat="43.48691" lon="1.14279">
        <ele>260.4019821875</ele>
        <time>2019-10-30T14:37:37Z</time>
      </trkpt>
      <trkpt lat="43.48691" lon="1.14289">
        <ele>260.7372253798</ele>
        <time>2019-10-30T14:37:43Z</time>
      </trkpt>
      <trkpt lat="43.4869" lon="1.14308">
        <ele>261.50394523214</ele>
        <time>2019-10-30T14:37:54Z</time>
      </trkpt>
      <trkpt lat="43.48689" lon="1.14323">
        <ele>262.14244979998</ele>
        <time>2019-10-30T14:38:02Z</time>
      </trkpt>
      <trkpt lat="43.48689" lon="1.14339">
        <ele>262.76463201392</ele>
        <time>2019-10-30T14:38:12Z</time>
      </trkpt>
      <trkpt lat="43.4869" lon="1.14359">
        <ele>263.35790608039</ele>
        <time>2019-10-30T14:38:24Z</time>
      </trkpt>
      <trkpt lat="43.4869" lon="1.14368">
        <ele>263.49989534286</ele>
        <time>2019-10-30T14:38:29Z</time>
      </trkpt>
      <trkpt lat="43.4869" lon="1.14372">
        <ele>263.54</ele>
        <time>2019-10-30T14:38:31Z</time>
      </trkpt>
      <trkpt lat="43.48691" lon="1.14376">
        <ele>263.55747730109</ele>
        <time>2019-10-30T14:38:34Z</time>
      </trkpt>
      <trkpt lat="43.48693" lon="1.14379">
        <ele>263.55541147115</ele>
        <time>2019-10-30T14:38:36Z</time>
      </trkpt>
      <trkpt lat="43.48695" lon="1.14382">
        <ele>263.53539562842</ele>
        <time>2019-10-30T14:38:38Z</time>
      </trkpt>
      <trkpt lat="43.48697" lon="1.14383">
        <ele>263.51098653202</ele>
        <time>2019-10-30T14:38:40Z</time>
      </trkpt>
      <trkpt lat="43.487" lon="1.14384">
        <ele>263.46279129434</ele>
        <time>2019-10-30T14:38:42Z</time>
      </trkpt>
      <trkpt lat="43.48703" lon="1.14384">
        <ele>263.39576792201</ele>
        <time>2019-10-30T14:38:44Z</time>
      </trkpt>
      <trkpt lat="43.48706" lon="1.14383">
        <ele>263.30721561949</ele>
        <time>2019-10-30T14:38:47Z</time>
      </trkpt>
      <trkpt lat="43.48728" lon="1.14373">
        <ele>262.08514627741</ele>
        <time>2019-10-30T14:39:05Z</time>
      </trkpt>
      <trkpt lat="43.4874" lon="1.14367">
        <ele>260.95854020717</ele>
        <time>2019-10-30T14:39:16Z</time>
      </trkpt>
      <trkpt lat="43.48744" lon="1.14365">
        <ele>260.59307900309</ele>
        <time>2019-10-30T14:39:19Z</time>
      </trkpt>
      <trkpt lat="43.48749" lon="1.14363">
        <ele>259.9983660168</ele>
        <time>2019-10-30T14:39:24Z</time>
      </trkpt>
      <trkpt lat="43.48753" lon="1.14362">
        <ele>259.56701637946</ele>
        <time>2019-10-30T14:39:27Z</time>
      </trkpt>
      <trkpt lat="43.48758" lon="1.14362">
        <ele>258.98</ele>
        <time>2019-10-30T14:39:31Z</time>
      </trkpt>
      <trkpt lat="43.48772" lon="1.14362">
        <ele>257.28340839938</ele>
        <time>2019-10-30T14:39:42Z</time>
      </trkpt>
      <trkpt lat="43.48779" lon="1.14362">
        <ele>256.31357932714</ele>
        <time>2019-10-30T14:39:48Z</time>
      </trkpt>
      <trkpt lat="43.48784" lon="1.14363">
        <ele>255.60451636938</ele>
        <time>2019-10-30T14:39:52Z</time>
      </trkpt>
      <trkpt lat="43.48789" lon="1.14364">
        <ele>255.01551076794</ele>
        <time>2019-10-30T14:39:55Z</time>
      </trkpt>
      <trkpt lat="43.48797" lon="1.14367">
        <ele>253.77291560017</ele>
        <time>2019-10-30T14:40:03Z</time>
      </trkpt>
      <trkpt lat="43.48801" lon="1.14368">
        <ele>253.3105230605</ele>
        <time>2019-10-30T14:40:05Z</time>
      </trkpt>
      <trkpt lat="43.48811" lon="1.14369">
        <ele>251.94072405035</ele>
        <time>2019-10-30T14:40:13Z</time>
      </trkpt>
      <trkpt lat="43.48815" lon="1.1437">
        <ele>251.31799478234</ele>
        <time>2019-10-30T14:40:17Z</time>
      </trkpt>
      <trkpt lat="43.48826" lon="1.14374">
        <ele>249.89540532554</ele>
        <time>2019-10-30T14:40:26Z</time>
      </trkpt>
      <trkpt lat="43.48832" lon="1.14375">
        <ele>249.26268167215</ele>
        <time>2019-10-30T14:40:31Z</time>
      </trkpt>
      <trkpt lat="43.4884" lon="1.14378">
        <ele>248.41075248058</ele>
        <time>2019-10-30T14:40:37Z</time>
      </trkpt>
      <trkpt lat="43.48842" lon="1.14379">
        <ele>248.19</ele>
        <time>2019-10-30T14:40:39Z</time>
      </trkpt>
      <trkpt lat="43.48852" lon="1.14379">
        <ele>247.29127461744</ele>
        <time>2019-10-30T14:40:47Z</time>
      </trkpt>
      <trkpt lat="43.4886" lon="1.14379">
        <ele>246.70899180609</ele>
        <time>2019-10-30T14:40:53Z</time>
      </trkpt>
      <trkpt lat="43.48864" lon="1.1438">
        <ele>246.42244001711</ele>
        <time>2019-10-30T14:40:57Z</time>
      </trkpt>
      <trkpt lat="43.48883" lon="1.14384">
        <ele>245.51943736079</ele>
        <time>2019-10-30T14:41:13Z</time>
      </trkpt>
      <trkpt lat="43.48891" lon="1.14385">
        <ele>245.32803557529</ele>
        <time>2019-10-30T14:41:19Z</time>
      </trkpt>
      <trkpt lat="43.48899" lon="1.14386">
        <ele>245.22034158618</ele>
        <time>2019-10-30T14:41:25Z</time>
      </trkpt>
      <trkpt lat="43.48908" lon="1.14386">
        <ele>245.20570651358</ele>
        <time>2019-10-30T14:41:32Z</time>
      </trkpt>
      <trkpt lat="43.48912" lon="1.14386">
        <ele>245.24401499187</ele>
        <time>2019-10-30T14:41:36Z</time>
      </trkpt>
      <trkpt lat="43.48921" lon="1.14388">
        <ele>245.41007850191</ele>
        <time>2019-10-30T14:41:43Z</time>
      </trkpt>
      <trkpt lat="43.48927" lon="1.14388">
        <ele>245.57</ele>
        <time>2019-10-30T14:41:48Z</time>
      </trkpt>
      <trkpt lat="43.48931" lon="1.14388">
        <ele>245.72588070233</ele>
        <time>2019-10-30T14:41:51Z</time>
      </trkpt>
      <trkpt lat="43.48941" lon="1.14386">
        <ele>246.17725687501</ele>
        <time>2019-10-30T14:41:59Z</time>
      </trkpt>
      <trkpt lat="43.48944" lon="1.14386">
        <ele>246.30178578983</ele>
        <time>2019-10-30T14:42:01Z</time>
      </trkpt>
      <trkpt lat="43.48946" lon="1.14386">
        <ele>246.44314915112</ele>
        <time>2019-10-30T14:42:03Z</time>
      </trkpt>
      <trkpt lat="43.48954" lon="1.14389">
        <ele>246.8936174523</ele>
        <time>2019-10-30T14:42:09Z</time>
      </trkpt>
      <trkpt lat="43.4896" lon="1.1439">
        <ele>247.33807192898</ele>
        <time>2019-10-30T14:42:15Z</time>
      </trkpt>
      <trkpt lat="43.48964" lon="1.14392">
        <ele>247.58894000378</ele>
        <time>2019-10-30T14:42:18Z</time>
      </trkpt>
      <trkpt lat="43.48966" lon="1.14394">
        <ele>247.80617599985</ele>
        <time>2019-10-30T14:42:20Z</time>
      </trkpt>
      <trkpt lat="43.48966" lon="1.14394">
        <ele>247.81667436158</ele>
        <time>2019-10-30T14:42:20Z</time>
      </trkpt>
      <trkpt lat="43.48966" lon="1.14394">
        <ele>247.83198947757</ele>
        <time>2019-10-30T14:42:21Z</time>
      </trkpt>
      <trkpt lat="43.48977" lon="1.14403">
        <ele>248.77607898672</ele>
        <time>2019-10-30T14:42:31Z</time>
      </trkpt>
      <trkpt lat="43.48981" lon="1.14407">
        <ele>249.16619269598</ele>
        <time>2019-10-30T14:42:35Z</time>
      </trkpt>
      <trkpt lat="43.48994" lon="1.14421">
        <ele>250.48</ele>
        <time>2019-10-30T14:42:48Z</time>
      </trkpt>
      <trkpt lat="43.49006" lon="1.14431">
        <ele>251.5349012924</ele>
        <time>2019-10-30T14:42:59Z</time>
      </trkpt>
      <trkpt lat="43.4902" lon="1.14445">
        <ele>252.89945827528</ele>
        <time>2019-10-30T14:43:12Z</time>
      </trkpt>
      <trkpt lat="43.49024" lon="1.14448">
        <ele>253.26619812705</ele>
        <time>2019-10-30T14:43:16Z</time>
      </trkpt>
      <trkpt lat="43.49026" lon="1.14449">
        <ele>253.46618855295</ele>
        <time>2019-10-30T14:43:18Z</time>
      </trkpt>
      <trkpt lat="43.49028" lon="1.1445">
        <ele>253.66049515348</ele>
        <time>2019-10-30T14:43:20Z</time>
      </trkpt>
      <trkpt lat="43.49031" lon="1.1445">
        <ele>253.86013373319</ele>
        <time>2019-10-30T14:43:22Z</time>
      </trkpt>
      <trkpt lat="43.49034" lon="1.1445">
        <ele>254.13556027908</ele>
        <time>2019-10-30T14:43:25Z</time>
      </trkpt>
      <trkpt lat="43.49041" lon="1.1445">
        <ele>254.72523082212</ele>
        <time>2019-10-30T14:43:30Z</time>
      </trkpt>
      <trkpt lat="43.49048" lon="1.1445">
        <ele>255.33393075296</ele>
        <time>2019-10-30T14:43:36Z</time>
      </trkpt>
      <trkpt lat="43.49053" lon="1.1445">
        <ele>255.78</ele>
        <time>2019-10-30T14:43:40Z</time>
      </trkpt>
      <trkpt lat="43.4912" lon="1.14457">
        <ele>262.08</ele>
        <time>2019-10-30T14:44:34Z</time>
      </trkpt>
      <trkpt lat="43.49151" lon="1.14512">
        <ele>265.02381499543</ele>
        <time>2019-10-30T14:45:14Z</time>
      </trkpt>
      <trkpt lat="43.49179" lon="1.14518">
        <ele>266.08843878783</ele>
        <time>2019-10-30T14:45:37Z</time>
      </trkpt>
      <trkpt lat="43.49199" lon="1.14507">
        <ele>262.1</ele>
        <time>2019-10-30T14:45:54Z</time>
      </trkpt>
    </trkseg>
  </trk>
</gpx>